sensor_id;sensor_type;location;lat;lon;timestamp;P1;durP1;ratioP1;P2;durP2;ratioP2
71914;SDS011;60387;49.994;14.660;2022-08-25T00:03:53;24.65;;;13.60;;
71914;SDS011;60387;49.994;14.660;2022-08-25T00:06:27;23.03;;;12.40;;
71914;SDS011;60387;49.994;14.660;2022-08-25T00:09:00;22.63;;;13.07;;
71914;SDS011;60387;49.994;14.660;2022-08-25T00:11:34;26.43;;;13.90;;
71914;SDS011;60387;49.994;14.660;2022-08-25T00:14:11;25.63;;;12.80;;
71914;SDS011;60387;49.994;14.660;2022-08-25T00:16:47;23.42;;;13.80;;
71914;SDS011;60387;49.994;14.660;2022-08-25T00:19:22;25.75;;;14.15;;
71914;SDS011;60387;49.994;14.660;2022-08-25T00:21:58;26.17;;;14.30;;
71914;SDS011;60387;49.994;14.660;2022-08-25T00:24:33;23.35;;;12.95;;
71914;SDS011;60387;49.994;14.660;2022-08-25T00:27:06;26.30;;;13.00;;
71914;SDS011;60387;49.994;14.660;2022-08-25T00:29:39;25.80;;;13.55;;
71914;SDS011;60387;49.994;14.660;2022-08-25T00:32:13;27.90;;;13.90;;
71914;SDS011;60387;49.994;14.660;2022-08-25T00:34:46;27.80;;;14.90;;
71914;SDS011;60387;49.994;14.660;2022-08-25T00:37:19;26.67;;;13.90;;
71914;SDS011;60387;49.994;14.660;2022-08-25T00:39:52;23.40;;;13.77;;
71914;SDS011;60387;49.994;14.660;2022-08-25T00:42:26;28.67;;;14.60;;
71914;SDS011;60387;49.994;14.660;2022-08-25T00:44:59;26.57;;;14.00;;
71914;SDS011;60387;49.994;14.660;2022-08-25T00:47:32;25.63;;;13.80;;
71914;SDS011;60387;49.994;14.660;2022-08-25T00:50:06;30.60;;;14.90;;
71914;SDS011;60387;49.994;14.660;2022-08-25T00:52:42;26.77;;;13.90;;
71914;SDS011;60387;49.994;14.660;2022-08-25T00:57:55;27.23;;;13.73;;
71914;SDS011;60387;49.994;14.660;2022-08-25T01:00:34;28.13;;;15.00;;
71914;SDS011;60387;49.994;14.660;2022-08-25T01:03:10;27.77;;;14.50;;
71914;SDS011;60387;49.994;14.660;2022-08-25T01:05:44;24.45;;;12.85;;
71914;SDS011;60387;49.994;14.660;2022-08-25T01:08:18;22.63;;;12.80;;
71914;SDS011;60387;49.994;14.660;2022-08-25T01:10:55;20.95;;;11.80;;
71914;SDS011;60387;49.994;14.660;2022-08-25T01:13:33;23.40;;;11.93;;
71914;SDS011;60387;49.994;14.660;2022-08-25T01:16:10;20.77;;;11.83;;
71914;SDS011;60387;49.994;14.660;2022-08-25T01:18:46;23.13;;;12.35;;
71914;SDS011;60387;49.994;14.660;2022-08-25T01:21:23;22.75;;;12.82;;
71914;SDS011;60387;49.994;14.660;2022-08-25T01:23:58;23.63;;;12.95;;
71914;SDS011;60387;49.994;14.660;2022-08-25T01:26:33;25.77;;;13.13;;
71914;SDS011;60387;49.994;14.660;2022-08-25T01:29:07;24.70;;;12.17;;
71914;SDS011;60387;49.994;14.660;2022-08-25T01:31:41;24.98;;;11.90;;
71914;SDS011;60387;49.994;14.660;2022-08-25T01:34:15;21.10;;;11.53;;
71914;SDS011;60387;49.994;14.660;2022-08-25T01:36:49;26.13;;;13.60;;
71914;SDS011;60387;49.994;14.660;2022-08-25T01:39:23;24.80;;;12.47;;
71914;SDS011;60387;49.994;14.660;2022-08-25T01:44:59;25.80;;;13.18;;
71914;SDS011;60387;49.994;14.660;2022-08-25T01:47:32;27.10;;;12.30;;
71914;SDS011;60387;49.994;14.660;2022-08-25T01:50:06;25.30;;;13.63;;
71914;SDS011;60387;49.994;14.660;2022-08-25T01:52:50;31.23;;;13.82;;
71914;SDS011;60387;49.994;14.660;2022-08-25T01:55:38;27.67;;;14.67;;
71914;SDS011;60387;49.994;14.660;2022-08-25T01:58:12;27.77;;;14.65;;
71914;SDS011;60387;49.994;14.660;2022-08-25T02:00:46;25.03;;;12.53;;
71914;SDS011;60387;49.994;14.660;2022-08-25T02:03:20;25.63;;;13.40;;
71914;SDS011;60387;49.994;14.660;2022-08-25T02:05:55;25.92;;;14.00;;
71914;SDS011;60387;49.994;14.660;2022-08-25T02:08:30;25.42;;;13.10;;
71914;SDS011;60387;49.994;14.660;2022-08-25T02:11:04;26.30;;;13.70;;
71914;SDS011;60387;49.994;14.660;2022-08-25T02:13:38;27.70;;;14.03;;
71914;SDS011;60387;49.994;14.660;2022-08-25T02:16:14;31.30;;;14.73;;
71914;SDS011;60387;49.994;14.660;2022-08-25T02:18:51;27.93;;;13.93;;
71914;SDS011;60387;49.994;14.660;2022-08-25T02:21:24;29.90;;;15.07;;
71914;SDS011;60387;49.994;14.660;2022-08-25T02:23:58;28.15;;;14.65;;
71914;SDS011;60387;49.994;14.660;2022-08-25T02:26:31;28.53;;;14.33;;
71914;SDS011;60387;49.994;14.660;2022-08-25T02:29:05;27.97;;;14.00;;
71914;SDS011;60387;49.994;14.660;2022-08-25T02:31:39;30.25;;;14.60;;
71914;SDS011;60387;49.994;14.660;2022-08-25T02:34:13;26.53;;;13.33;;
71914;SDS011;60387;49.994;14.660;2022-08-25T02:36:46;26.48;;;13.88;;
71914;SDS011;60387;49.994;14.660;2022-08-25T02:39:19;28.83;;;13.60;;
71914;SDS011;60387;49.994;14.660;2022-08-25T02:41:52;30.37;;;15.33;;
71914;SDS011;60387;49.994;14.660;2022-08-25T02:44:26;27.80;;;14.37;;
71914;SDS011;60387;49.994;14.660;2022-08-25T02:46:59;32.20;;;15.40;;
71914;SDS011;60387;49.994;14.660;2022-08-25T02:49:32;31.90;;;16.27;;
71914;SDS011;60387;49.994;14.660;2022-08-25T02:52:06;33.63;;;14.87;;
71914;SDS011;60387;49.994;14.660;2022-08-25T02:54:39;29.53;;;13.90;;
71914;SDS011;60387;49.994;14.660;2022-08-25T02:57:13;25.33;;;13.30;;
71914;SDS011;60387;49.994;14.660;2022-08-25T02:59:46;28.10;;;13.80;;
71914;SDS011;60387;49.994;14.660;2022-08-25T03:02:19;32.63;;;15.30;;
71914;SDS011;60387;49.994;14.660;2022-08-25T03:04:52;31.03;;;14.40;;
71914;SDS011;60387;49.994;14.660;2022-08-25T03:07:26;27.73;;;14.67;;
71914;SDS011;60387;49.994;14.660;2022-08-25T03:10:03;29.35;;;14.52;;
71914;SDS011;60387;49.994;14.660;2022-08-25T03:12:41;34.67;;;15.77;;
71914;SDS011;60387;49.994;14.660;2022-08-25T03:15:15;27.83;;;14.07;;
71914;SDS011;60387;49.994;14.660;2022-08-25T03:17:49;26.90;;;14.13;;
71914;SDS011;60387;49.994;14.660;2022-08-25T03:20:23;27.27;;;13.20;;
71914;SDS011;60387;49.994;14.660;2022-08-25T03:22:57;26.50;;;14.88;;
71914;SDS011;60387;49.994;14.660;2022-08-25T03:25:30;31.30;;;14.63;;
71914;SDS011;60387;49.994;14.660;2022-08-25T03:28:05;28.42;;;14.35;;
71914;SDS011;60387;49.994;14.660;2022-08-25T03:30:40;35.10;;;16.25;;
71914;SDS011;60387;49.994;14.660;2022-08-25T03:33:14;29.83;;;14.63;;
71914;SDS011;60387;49.994;14.660;2022-08-25T03:35:48;37.00;;;16.52;;
71914;SDS011;60387;49.994;14.660;2022-08-25T03:38:21;41.97;;;16.57;;
71914;SDS011;60387;49.994;14.660;2022-08-25T03:40:55;50.65;;;17.52;;
71914;SDS011;60387;49.994;14.660;2022-08-25T03:43:29;42.47;;;16.17;;
71914;SDS011;60387;49.994;14.660;2022-08-25T03:46:02;64.20;;;16.97;;
71914;SDS011;60387;49.994;14.660;2022-08-25T03:48:35;43.77;;;17.27;;
71914;SDS011;60387;49.994;14.660;2022-08-25T03:51:08;116.97;;;19.97;;
71914;SDS011;60387;49.994;14.660;2022-08-25T03:53:42;83.07;;;17.27;;
71914;SDS011;60387;49.994;14.660;2022-08-25T03:56:15;72.83;;;17.63;;
71914;SDS011;60387;49.994;14.660;2022-08-25T03:58:48;79.47;;;18.00;;
71914;SDS011;60387;49.994;14.660;2022-08-25T04:01:22;63.67;;;17.13;;
71914;SDS011;60387;49.994;14.660;2022-08-25T04:03:56;103.45;;;19.08;;
71914;SDS011;60387;49.994;14.660;2022-08-25T04:06:29;108.77;;;18.77;;
71914;SDS011;60387;49.994;14.660;2022-08-25T04:09:02;106.37;;;17.53;;
71914;SDS011;60387;49.994;14.660;2022-08-25T04:11:36;95.70;;;18.33;;
71914;SDS011;60387;49.994;14.660;2022-08-25T04:14:09;66.07;;;17.37;;
71914;SDS011;60387;49.994;14.660;2022-08-25T04:16:42;55.23;;;16.37;;
71914;SDS011;60387;49.994;14.660;2022-08-25T04:19:17;76.85;;;19.67;;
71914;SDS011;60387;49.994;14.660;2022-08-25T04:21:51;51.58;;;18.55;;
71914;SDS011;60387;49.994;14.660;2022-08-25T04:24:24;51.53;;;17.77;;
71914;SDS011;60387;49.994;14.660;2022-08-25T04:26:58;63.50;;;17.90;;
71914;SDS011;60387;49.994;14.660;2022-08-25T04:29:31;41.00;;;17.60;;
71914;SDS011;60387;49.994;14.660;2022-08-25T04:32:04;39.23;;;16.63;;
71914;SDS011;60387;49.994;14.660;2022-08-25T04:34:37;52.23;;;16.03;;
71914;SDS011;60387;49.994;14.660;2022-08-25T04:37:11;53.80;;;18.13;;
71914;SDS011;60387;49.994;14.660;2022-08-25T04:39:44;50.23;;;17.73;;
71914;SDS011;60387;49.994;14.660;2022-08-25T04:42:17;70.03;;;17.90;;
71914;SDS011;60387;49.994;14.660;2022-08-25T04:44:51;64.70;;;17.50;;
71914;SDS011;60387;49.994;14.660;2022-08-25T04:47:24;54.27;;;17.40;;
71914;SDS011;60387;49.994;14.660;2022-08-25T04:49:57;48.13;;;18.50;;
71914;SDS011;60387;49.994;14.660;2022-08-25T04:52:30;44.87;;;17.60;;
71914;SDS011;60387;49.994;14.660;2022-08-25T04:55:04;36.37;;;17.27;;
71914;SDS011;60387;49.994;14.660;2022-08-25T04:57:37;35.67;;;16.70;;
71914;SDS011;60387;49.994;14.660;2022-08-25T05:00:11;47.67;;;17.57;;
71914;SDS011;60387;49.994;14.660;2022-08-25T05:02:44;38.65;;;16.95;;
71914;SDS011;60387;49.994;14.660;2022-08-25T05:05:18;36.90;;;16.60;;
71914;SDS011;60387;49.994;14.660;2022-08-25T05:07:51;39.40;;;16.53;;
71914;SDS011;60387;49.994;14.660;2022-08-25T05:10:24;33.83;;;15.63;;
71914;SDS011;60387;49.994;14.660;2022-08-25T05:12:57;47.23;;;16.13;;
71914;SDS011;60387;49.994;14.660;2022-08-25T05:15:31;42.42;;;15.98;;
71914;SDS011;60387;49.994;14.660;2022-08-25T05:18:04;44.03;;;16.97;;
71914;SDS011;60387;49.994;14.660;2022-08-25T05:20:38;41.23;;;15.47;;
71914;SDS011;60387;49.994;14.660;2022-08-25T05:23:11;34.23;;;15.83;;
71914;SDS011;60387;49.994;14.660;2022-08-25T05:25:44;33.73;;;16.07;;
71914;SDS011;60387;49.994;14.660;2022-08-25T05:28:18;35.23;;;16.30;;
71914;SDS011;60387;49.994;14.660;2022-08-25T05:30:55;29.88;;;15.13;;
71914;SDS011;60387;49.994;14.660;2022-08-25T05:33:30;32.65;;;15.48;;
71914;SDS011;60387;49.994;14.660;2022-08-25T05:36:04;32.40;;;16.47;;
71914;SDS011;60387;49.994;14.660;2022-08-25T05:38:39;32.25;;;15.85;;
71914;SDS011;60387;49.994;14.660;2022-08-25T05:41:16;32.92;;;15.40;;
71914;SDS011;60387;49.994;14.660;2022-08-25T05:43:50;32.47;;;16.73;;
71914;SDS011;60387;49.994;14.660;2022-08-25T05:46:24;34.42;;;17.10;;
71914;SDS011;60387;49.994;14.660;2022-08-25T05:48:57;32.47;;;17.10;;
71914;SDS011;60387;49.994;14.660;2022-08-25T05:51:31;34.90;;;17.27;;
71914;SDS011;60387;49.994;14.660;2022-08-25T05:54:04;32.37;;;16.97;;
71914;SDS011;60387;49.994;14.660;2022-08-25T05:56:37;32.53;;;17.10;;
71914;SDS011;60387;49.994;14.660;2022-08-25T05:59:10;31.47;;;16.30;;
71914;SDS011;60387;49.994;14.660;2022-08-25T06:01:44;31.27;;;16.47;;
71914;SDS011;60387;49.994;14.660;2022-08-25T06:04:17;27.90;;;15.57;;
71914;SDS011;60387;49.994;14.660;2022-08-25T06:06:50;29.60;;;16.13;;
71914;SDS011;60387;49.994;14.660;2022-08-25T06:09:24;27.70;;;15.23;;
71914;SDS011;60387;49.994;14.660;2022-08-25T06:11:57;28.20;;;15.77;;
71914;SDS011;60387;49.994;14.660;2022-08-25T06:14:30;32.47;;;16.70;;
71914;SDS011;60387;49.994;14.660;2022-08-25T06:17:04;29.47;;;15.77;;
71914;SDS011;60387;49.994;14.660;2022-08-25T06:19:37;29.93;;;16.93;;
71914;SDS011;60387;49.994;14.660;2022-08-25T06:22:10;31.17;;;17.43;;
71914;SDS011;60387;49.994;14.660;2022-08-25T06:24:43;29.33;;;15.47;;
71914;SDS011;60387;49.994;14.660;2022-08-25T06:27:17;26.00;;;15.10;;
71914;SDS011;60387;49.994;14.660;2022-08-25T06:29:50;26.08;;;14.20;;
71914;SDS011;60387;49.994;14.660;2022-08-25T06:32:24;26.30;;;15.80;;
71914;SDS011;60387;49.994;14.660;2022-08-25T06:34:57;24.20;;;14.80;;
71914;SDS011;60387;49.994;14.660;2022-08-25T06:37:31;24.10;;;14.17;;
71914;SDS011;60387;49.994;14.660;2022-08-25T06:40:05;22.42;;;14.15;;
71914;SDS011;60387;49.994;14.660;2022-08-25T06:42:38;23.45;;;14.57;;
71914;SDS011;60387;49.994;14.660;2022-08-25T06:45:12;23.13;;;14.03;;
71914;SDS011;60387;49.994;14.660;2022-08-25T06:47:45;21.07;;;13.10;;
71914;SDS011;60387;49.994;14.660;2022-08-25T06:50:19;20.53;;;12.30;;
71914;SDS011;60387;49.994;14.660;2022-08-25T06:52:52;18.73;;;11.60;;
71914;SDS011;60387;49.994;14.660;2022-08-25T06:55:25;17.97;;;11.47;;
71914;SDS011;60387;49.994;14.660;2022-08-25T06:57:58;18.23;;;10.93;;
71914;SDS011;60387;49.994;14.660;2022-08-25T07:00:32;19.57;;;11.73;;
71914;SDS011;60387;49.994;14.660;2022-08-25T07:03:05;17.37;;;11.17;;
71914;SDS011;60387;49.994;14.660;2022-08-25T07:05:38;18.93;;;11.03;;
71914;SDS011;60387;49.994;14.660;2022-08-25T07:08:12;16.27;;;10.63;;
71914;SDS011;60387;49.994;14.660;2022-08-25T07:10:46;17.13;;;11.10;;
71914;SDS011;60387;49.994;14.660;2022-08-25T07:13:19;17.07;;;10.80;;
71914;SDS011;60387;49.994;14.660;2022-08-25T07:15:53;16.07;;;10.43;;
71914;SDS011;60387;49.994;14.660;2022-08-25T07:18:26;15.73;;;10.30;;
71914;SDS011;60387;49.994;14.660;2022-08-25T07:21:00;18.07;;;10.70;;
71914;SDS011;60387;49.994;14.660;2022-08-25T07:23:33;17.67;;;10.90;;
71914;SDS011;60387;49.994;14.660;2022-08-25T07:26:10;18.00;;;11.67;;
71914;SDS011;60387;49.994;14.660;2022-08-25T07:28:47;17.75;;;10.93;;
71914;SDS011;60387;49.994;14.660;2022-08-25T07:31:21;17.10;;;10.98;;
71914;SDS011;60387;49.994;14.660;2022-08-25T07:33:55;16.90;;;10.97;;
71914;SDS011;60387;49.994;14.660;2022-08-25T07:36:29;15.57;;;10.25;;
71914;SDS011;60387;49.994;14.660;2022-08-25T07:39:03;15.85;;;10.20;;
71914;SDS011;60387;49.994;14.660;2022-08-25T07:41:37;15.60;;;10.00;;
71914;SDS011;60387;49.994;14.660;2022-08-25T07:44:12;19.23;;;9.85;;
71914;SDS011;60387;49.994;14.660;2022-08-25T07:46:46;16.10;;;9.10;;
71914;SDS011;60387;49.994;14.660;2022-08-25T07:49:20;15.13;;;9.53;;
71914;SDS011;60387;49.994;14.660;2022-08-25T07:51:55;13.98;;;8.88;;
71914;SDS011;60387;49.994;14.660;2022-08-25T07:54:28;15.17;;;9.20;;
71914;SDS011;60387;49.994;14.660;2022-08-25T07:57:02;15.73;;;9.73;;
71914;SDS011;60387;49.994;14.660;2022-08-25T07:59:39;15.73;;;9.68;;
71914;SDS011;60387;49.994;14.660;2022-08-25T08:02:14;15.25;;;9.00;;
71914;SDS011;60387;49.994;14.660;2022-08-25T08:04:48;16.30;;;8.93;;
71914;SDS011;60387;49.994;14.660;2022-08-25T08:07:23;16.37;;;9.30;;
71914;SDS011;60387;49.994;14.660;2022-08-25T08:09:58;15.10;;;8.98;;
71914;SDS011;60387;49.994;14.660;2022-08-25T08:12:32;15.60;;;8.63;;
71914;SDS011;60387;49.994;14.660;2022-08-25T08:15:07;15.25;;;8.75;;
71914;SDS011;60387;49.994;14.660;2022-08-25T08:44:02;15.23;;;7.70;;
71914;SDS011;60387;49.994;14.660;2022-08-25T08:46:54;14.93;;;8.18;;
71914;SDS011;60387;49.994;14.660;2022-08-25T08:49:45;14.73;;;7.80;;
71914;SDS011;60387;49.994;14.660;2022-08-25T09:00:53;17.38;;;8.00;;
71914;SDS011;60387;49.994;14.660;2022-08-25T09:06:10;14.00;;;8.50;;
71914;SDS011;60387;49.994;14.660;2022-08-25T09:08:49;16.73;;;7.73;;
71914;SDS011;60387;49.994;14.660;2022-08-25T09:14:37;17.77;;;7.30;;
71914;SDS011;60387;49.994;14.660;2022-08-25T09:28:48;18.25;;;7.30;;
71914;SDS011;60387;49.994;14.660;2022-08-25T09:34:15;16.10;;;7.03;;
71914;SDS011;60387;49.994;14.660;2022-08-25T09:36:51;21.33;;;7.40;;
71914;SDS011;60387;49.994;14.660;2022-08-25T09:39:27;16.10;;;6.83;;
71914;SDS011;60387;49.994;14.660;2022-08-25T09:42:01;20.77;;;7.03;;
71914;SDS011;60387;49.994;14.660;2022-08-25T09:47:21;17.50;;;7.45;;
71914;SDS011;60387;49.994;14.660;2022-08-25T09:50:01;18.15;;;7.47;;
71914;SDS011;60387;49.994;14.660;2022-08-25T09:52:39;19.25;;;7.78;;
71914;SDS011;60387;49.994;14.660;2022-08-25T09:57:50;24.60;;;8.93;;
71914;SDS011;60387;49.994;14.660;2022-08-25T10:00:27;20.95;;;8.27;;
71914;SDS011;60387;49.994;14.660;2022-08-25T10:05:49;21.00;;;8.70;;
71914;SDS011;60387;49.994;14.660;2022-08-25T10:11:10;18.80;;;8.10;;
71914;SDS011;60387;49.994;14.660;2022-08-25T10:14:03;22.23;;;8.15;;
71914;SDS011;60387;49.994;14.660;2022-08-25T10:16:46;20.45;;;8.15;;
71914;SDS011;60387;49.994;14.660;2022-08-25T10:22:03;17.05;;;8.15;;
71914;SDS011;60387;49.994;14.660;2022-08-25T10:24:39;17.00;;;8.23;;
71914;SDS011;60387;49.994;14.660;2022-08-25T10:27:34;21.87;;;8.17;;
71914;SDS011;60387;49.994;14.660;2022-08-25T10:30:21;22.38;;;8.43;;
71914;SDS011;60387;49.994;14.660;2022-08-25T10:38:58;19.70;;;7.57;;
71914;SDS011;60387;49.994;14.660;2022-08-25T10:41:43;20.93;;;7.10;;
71914;SDS011;60387;49.994;14.660;2022-08-25T10:44:50;18.65;;;8.02;;
71914;SDS011;60387;49.994;14.660;2022-08-25T10:47:48;21.05;;;8.02;;
71914;SDS011;60387;49.994;14.660;2022-08-25T10:50:31;22.20;;;7.75;;
71914;SDS011;60387;49.994;14.660;2022-08-25T10:53:22;17.35;;;8.45;;
71914;SDS011;60387;49.994;14.660;2022-08-25T10:56:09;19.50;;;8.30;;
71914;SDS011;60387;49.994;14.660;2022-08-25T11:07:21;18.42;;;7.72;;
71914;SDS011;60387;49.994;14.660;2022-08-25T11:10:07;17.47;;;7.17;;
71914;SDS011;60387;49.994;14.660;2022-08-25T11:12:50;18.55;;;8.02;;
71914;SDS011;60387;49.994;14.660;2022-08-25T11:15:28;19.83;;;7.95;;
71914;SDS011;60387;49.994;14.660;2022-08-25T11:18:12;17.30;;;7.05;;
71914;SDS011;60387;49.994;14.660;2022-08-25T11:20:58;18.38;;;7.28;;
71914;SDS011;60387;49.994;14.660;2022-08-25T11:23:40;15.17;;;7.47;;
71914;SDS011;60387;49.994;14.660;2022-08-25T11:26:25;18.02;;;7.03;;
71914;SDS011;60387;49.994;14.660;2022-08-25T11:29:08;17.45;;;7.07;;
71914;SDS011;60387;49.994;14.660;2022-08-25T11:31:47;17.85;;;6.68;;
71914;SDS011;60387;49.994;14.660;2022-08-25T11:34:23;17.83;;;7.22;;
71914;SDS011;60387;49.994;14.660;2022-08-25T11:37:17;14.93;;;7.37;;
71914;SDS011;60387;49.994;14.660;2022-08-25T11:42:59;17.50;;;7.32;;
71914;SDS011;60387;49.994;14.660;2022-08-25T11:51:46;15.83;;;6.87;;
71914;SDS011;60387;49.994;14.660;2022-08-25T12:10:24;15.77;;;7.93;;
71914;SDS011;60387;49.994;14.660;2022-08-25T12:13:03;20.98;;;7.35;;
71914;SDS011;60387;49.994;14.660;2022-08-25T12:15:55;18.40;;;7.35;;
71914;SDS011;60387;49.994;14.660;2022-08-25T12:23:42;21.33;;;7.28;;
71914;SDS011;60387;49.994;14.660;2022-08-25T12:26:21;19.73;;;7.80;;
71914;SDS011;60387;49.994;14.660;2022-08-25T12:38:08;19.15;;;6.80;;
71914;SDS011;60387;49.994;14.660;2022-08-25T12:48:57;18.73;;;6.50;;
71914;SDS011;60387;49.994;14.660;2022-08-25T12:56:50;23.13;;;7.32;;
71914;SDS011;60387;49.994;14.660;2022-08-25T12:59:36;18.88;;;6.72;;
71914;SDS011;60387;49.994;14.660;2022-08-25T13:10:43;20.87;;;6.90;;
71914;SDS011;60387;49.994;14.660;2022-08-25T13:13:51;22.95;;;6.88;;
71914;SDS011;60387;49.994;14.660;2022-08-25T13:16:53;20.27;;;6.45;;
71914;SDS011;60387;49.994;14.660;2022-08-25T13:19:28;16.88;;;6.13;;
71914;SDS011;60387;49.994;14.660;2022-08-25T13:22:03;17.30;;;6.70;;
71914;SDS011;60387;49.994;14.660;2022-08-25T13:24:45;17.80;;;6.47;;
71914;SDS011;60387;49.994;14.660;2022-08-25T13:27:23;18.73;;;6.25;;
71914;SDS011;60387;49.994;14.660;2022-08-25T13:29:59;16.40;;;6.47;;
71914;SDS011;60387;49.994;14.660;2022-08-25T13:32:34;18.20;;;6.27;;
71914;SDS011;60387;49.994;14.660;2022-08-25T13:35:19;17.25;;;6.43;;
71914;SDS011;60387;49.994;14.660;2022-08-25T13:38:16;18.33;;;6.65;;
71914;SDS011;60387;49.994;14.660;2022-08-25T13:40:50;15.93;;;6.50;;
71914;SDS011;60387;49.994;14.660;2022-08-25T13:43:37;16.97;;;6.03;;
71914;SDS011;60387;49.994;14.660;2022-08-25T13:46:11;14.38;;;6.07;;
71914;SDS011;60387;49.994;14.660;2022-08-25T13:48:44;15.63;;;6.60;;
71914;SDS011;60387;49.994;14.660;2022-08-25T13:54:02;19.37;;;6.53;;
71914;SDS011;60387;49.994;14.660;2022-08-25T13:56:40;17.58;;;6.13;;
71914;SDS011;60387;49.994;14.660;2022-08-25T13:59:21;16.95;;;6.30;;
71914;SDS011;60387;49.994;14.660;2022-08-25T14:01:57;21.75;;;6.43;;
71914;SDS011;60387;49.994;14.660;2022-08-25T14:04:32;15.67;;;5.90;;
71914;SDS011;60387;49.994;14.660;2022-08-25T14:20:43;14.55;;;5.45;;
71914;SDS011;60387;49.994;14.660;2022-08-25T14:23:20;12.85;;;5.40;;
71914;SDS011;60387;49.994;14.660;2022-08-25T14:25:56;14.30;;;5.75;;
71914;SDS011;60387;49.994;14.660;2022-08-25T14:28:29;16.60;;;5.82;;
71914;SDS011;60387;49.994;14.660;2022-08-25T14:31:13;16.17;;;5.67;;
71914;SDS011;60387;49.994;14.660;2022-08-25T14:33:53;15.77;;;5.80;;
71914;SDS011;60387;49.994;14.660;2022-08-25T14:36:29;14.00;;;5.43;;
71914;SDS011;60387;49.994;14.660;2022-08-25T14:39:04;15.02;;;6.82;;
71914;SDS011;60387;49.994;14.660;2022-08-25T14:41:38;15.47;;;6.40;;
71914;SDS011;60387;49.994;14.660;2022-08-25T14:44:14;14.18;;;6.28;;
71914;SDS011;60387;49.994;14.660;2022-08-25T14:46:49;15.23;;;6.10;;
71914;SDS011;60387;49.994;14.660;2022-08-25T14:49:26;14.40;;;6.43;;
71914;SDS011;60387;49.994;14.660;2022-08-25T14:52:09;15.73;;;5.80;;
71914;SDS011;60387;49.994;14.660;2022-08-25T14:54:50;18.37;;;6.10;;
71914;SDS011;60387;49.994;14.660;2022-08-25T14:57:23;18.77;;;6.07;;
71914;SDS011;60387;49.994;14.660;2022-08-25T14:59:58;16.87;;;6.70;;
71914;SDS011;60387;49.994;14.660;2022-08-25T15:02:31;19.80;;;6.53;;
71914;SDS011;60387;49.994;14.660;2022-08-25T15:05:10;16.75;;;6.30;;
71914;SDS011;60387;49.994;14.660;2022-08-25T15:07:47;19.02;;;5.95;;
71914;SDS011;60387;49.994;14.660;2022-08-25T15:10:20;16.20;;;5.77;;
71914;SDS011;60387;49.994;14.660;2022-08-25T15:12:54;19.23;;;6.80;;
71914;SDS011;60387;49.994;14.660;2022-08-25T15:15:27;14.40;;;5.87;;
71914;SDS011;60387;49.994;14.660;2022-08-25T15:18:00;13.73;;;6.20;;
71914;SDS011;60387;49.994;14.660;2022-08-25T15:20:33;13.87;;;7.03;;
71914;SDS011;60387;49.994;14.660;2022-08-25T15:23:07;16.87;;;6.47;;
71914;SDS011;60387;49.994;14.660;2022-08-25T15:25:40;17.30;;;6.27;;
71914;SDS011;60387;49.994;14.660;2022-08-25T15:28:15;16.13;;;6.00;;
71914;SDS011;60387;49.994;14.660;2022-08-25T15:30:49;16.15;;;5.78;;
71914;SDS011;60387;49.994;14.660;2022-08-25T15:33:22;18.58;;;6.25;;
71914;SDS011;60387;49.994;14.660;2022-08-25T15:35:55;19.40;;;6.13;;
71914;SDS011;60387;49.994;14.660;2022-08-25T15:38:29;15.67;;;5.60;;
71914;SDS011;60387;49.994;14.660;2022-08-25T15:41:02;17.57;;;6.13;;
71914;SDS011;60387;49.994;14.660;2022-08-25T15:43:36;23.77;;;6.95;;
71914;SDS011;60387;49.994;14.660;2022-08-25T15:46:10;16.10;;;6.60;;
71914;SDS011;60387;49.994;14.660;2022-08-25T15:48:47;14.80;;;5.82;;
71914;SDS011;60387;49.994;14.660;2022-08-25T15:51:21;15.10;;;6.50;;
71914;SDS011;60387;49.994;14.660;2022-08-25T15:53:55;17.37;;;6.67;;
71914;SDS011;60387;49.994;14.660;2022-08-25T15:56:29;10.30;;;5.07;;
71914;SDS011;60387;49.994;14.660;2022-08-25T15:59:03;13.47;;;5.60;;
71914;SDS011;60387;49.994;14.660;2022-08-25T16:01:36;16.15;;;5.72;;
71914;SDS011;60387;49.994;14.660;2022-08-25T16:04:10;13.87;;;5.57;;
71914;SDS011;60387;49.994;14.660;2022-08-25T16:06:43;11.75;;;5.10;;
71914;SDS011;60387;49.994;14.660;2022-08-25T16:09:17;15.57;;;6.00;;
71914;SDS011;60387;49.994;14.660;2022-08-25T16:11:50;16.43;;;6.40;;
71914;SDS011;60387;49.994;14.660;2022-08-25T16:14:24;16.42;;;5.90;;
71914;SDS011;60387;49.994;14.660;2022-08-25T16:16:58;15.10;;;4.67;;
71914;SDS011;60387;49.994;14.660;2022-08-25T16:19:32;14.60;;;4.77;;
71914;SDS011;60387;49.994;14.660;2022-08-25T16:22:05;10.38;;;4.10;;
71914;SDS011;60387;49.994;14.660;2022-08-25T16:24:42;10.00;;;3.67;;
71914;SDS011;60387;49.994;14.660;2022-08-25T16:27:16;8.63;;;3.50;;
71914;SDS011;60387;49.994;14.660;2022-08-25T16:29:49;11.40;;;3.90;;
71914;SDS011;60387;49.994;14.660;2022-08-25T16:32:22;9.43;;;3.50;;
71914;SDS011;60387;49.994;14.660;2022-08-25T16:34:56;9.20;;;3.63;;
71914;SDS011;60387;49.994;14.660;2022-08-25T16:37:31;9.68;;;3.50;;
71914;SDS011;60387;49.994;14.660;2022-08-25T16:40:06;11.13;;;3.70;;
71914;SDS011;60387;49.994;14.660;2022-08-25T16:42:40;9.68;;;3.60;;
71914;SDS011;60387;49.994;14.660;2022-08-25T16:45:14;9.87;;;3.47;;
71914;SDS011;60387;49.994;14.660;2022-08-25T16:47:47;9.90;;;3.75;;
71914;SDS011;60387;49.994;14.660;2022-08-25T16:50:21;11.13;;;4.10;;
71914;SDS011;60387;49.994;14.660;2022-08-25T16:52:55;12.30;;;4.20;;
71914;SDS011;60387;49.994;14.660;2022-08-25T16:55:29;9.20;;;3.38;;
71914;SDS011;60387;49.994;14.660;2022-08-25T16:58:02;12.17;;;4.10;;
71914;SDS011;60387;49.994;14.660;2022-08-25T17:00:36;10.40;;;4.33;;
71914;SDS011;60387;49.994;14.660;2022-08-25T17:03:10;11.43;;;4.10;;
71914;SDS011;60387;49.994;14.660;2022-08-25T17:05:44;10.17;;;4.40;;
71914;SDS011;60387;49.994;14.660;2022-08-25T17:08:17;13.38;;;4.82;;
71914;SDS011;60387;49.994;14.660;2022-08-25T17:10:51;9.87;;;4.70;;
71914;SDS011;60387;49.994;14.660;2022-08-25T17:13:24;16.63;;;4.83;;
71914;SDS011;60387;49.994;14.660;2022-08-25T17:15:57;9.53;;;4.27;;
71914;SDS011;60387;49.994;14.660;2022-08-25T17:18:31;10.03;;;4.33;;
71914;SDS011;60387;49.994;14.660;2022-08-25T17:21:09;14.82;;;5.55;;
71914;SDS011;60387;49.994;14.660;2022-08-25T17:23:44;14.00;;;5.00;;
71914;SDS011;60387;49.994;14.660;2022-08-25T17:26:18;10.68;;;5.38;;
71914;SDS011;60387;49.994;14.660;2022-08-25T17:28:51;11.63;;;5.00;;
71914;SDS011;60387;49.994;14.660;2022-08-25T17:31:25;12.88;;;4.93;;
71914;SDS011;60387;49.994;14.660;2022-08-25T17:34:00;10.80;;;5.03;;
71914;SDS011;60387;49.994;14.660;2022-08-25T17:36:33;10.33;;;4.93;;
71914;SDS011;60387;49.994;14.660;2022-08-25T17:39:07;10.57;;;5.23;;
71914;SDS011;60387;49.994;14.660;2022-08-25T17:41:42;16.45;;;6.07;;
71914;SDS011;60387;49.994;14.660;2022-08-25T17:44:16;12.60;;;6.07;;
71914;SDS011;60387;49.994;14.660;2022-08-25T17:46:50;12.88;;;5.53;;
71914;SDS011;60387;49.994;14.660;2022-08-25T17:49:24;15.00;;;5.87;;
71914;SDS011;60387;49.994;14.660;2022-08-25T17:51:57;15.53;;;5.27;;
71914;SDS011;60387;49.994;14.660;2022-08-25T17:54:30;12.53;;;4.47;;